Honolulu, HI

5:39 AM HST on August 01, 2015 (GMT -1000)
Pacific Heights | | Change Station
CLOSE
Current Station
Personal Weather Station
Location: Honolulu, HI
Elevation: 528 ft
Nearby Weather Stations

Elev 528 ft 21.33 °N, 157.84 °W | Updated 8 seconds ago

Scattered Clouds
Scattered Clouds
76.6 °F
Feels Like 78 °F
N
8.9
Wind Variable Wind from ESE
Gusts 9.0 mph

Today
High -- | Low -- °F
--% Chance of Precip.
Yesterday
High -- | Low -- °F
Precip. -- in
6:04 AM 7:10 PM
Full, 98% visible
Pressure 29.95 in
Visibility 10.0 miles
Clouds Few 2500 ft
Scattered Clouds 3500 ft
Scattered Clouds 5000 ft
Heat Index 78 °F
Dew Point 70 °F
Humidity 79%
Rainfall 0.00 in
Snow Depth Not available.
UV 0 out of 12
Pollen Not available.
Air Quality Not available.
Flu Activity Not available.
METAR PHNL 011453Z 07009KT 10SM FEW025 SCT035 SCT050 26/21 A2995 RMK AO2 SLP142 60000 T02610206 55005 $

More Conditions Fewer Conditions

Pressure 29.95 in
Visibility 10.0 miles
Clouds Few 2500 ft
Scattered Clouds 3500 ft
Scattered Clouds 5000 ft
Heat Index 78 °F
Dew Point 70 °F
Humidity 79%
Rainfall 0.00 in
Snow Depth Not available.
UV 0 out of 12
Pollen Not available.
Air Quality Not available.
Flu Activity Not available.
METAR PHNL 011453Z 07009KT 10SM FEW025 SCT035 SCT050 26/21 A2995 RMK AO2 SLP142 60000 T02610206 55005 $

More Conditions Fewer Conditions

10-Day Weather Forecast

×

Almanac

Astronomy

Aug. 01, 2015 Rise Set
Actual Time
Civil Twilight
Nautical Twilight
Astronomical Twilight
Moon
Length of Visible Light
Length of Day
Tomorrow will be .
, % of the Moon is Illuminated

Today's Extremes

State Highs State Lows

Community

WunderPhotos

Upload Photos

1,842,965 photos uploaded!

WunderBlogs® & News

Nearby

Air Quality

  Air Quality AQ Index Pollutant
Not available.

Snow Depth

Station Depth Elevation

Earthquake Activity

City Distance Mag. Time & Date
Minimum magnitude displayed is 2.5.

Coastal Water Temperatures

Place Temperature

Stations

Nearby Weather Stations

Station Location Temp. Windchill Dew Point Humidity Wind Precip. Elev Updated Type